Time;durP1;ratioP1;P1;durP2;ratioP2;P2;SDS_P1;SDS_P2;PMS_P1;PMS_P2;Temp;Humidity;BMP_temperature;BMP_pressure;BME280_temperature;BME280_humidity;BME280_pressure;Samples;Min_cycle;Max_cycle;Signal;HPM_P1;HPM_P2
2021/07/25 00:01:12;;;;;;;13.75;9.27;;;;;;;22.21;49.51;101221.78;5038889;28;20035;-72
2021/07/25 00:03:38;;;;;;;13.68;9.77;;;;;;;22.20;49.30;101219.38;5035101;28;20048;-72
2021/07/25 00:06:03;;;;;;;18.45;9.75;;;;;;;22.15;49.59;101216.78;5022114;28;20483;-72
2021/07/25 00:08:29;;;;;;;17.38;9.50;;;;;;;22.11;49.59;101213.09;5039156;28;20131;-72
2021/07/25 00:10:56;;;;;;;16.10;9.00;;;;;;;22.03;49.87;101203.69;5035647;28;20436;-72
2021/07/25 00:13:22;;;;;;;15.52;9.77;;;;;;;22.02;49.56;101208.34;5038836;28;20432;-72
2021/07/25 00:15:48;;;;;;;17.10;9.48;;;;;;;21.97;49.75;101207.69;5037773;28;20089;-72
2021/07/25 00:18:13;;;;;;;14.93;8.73;;;;;;;21.91;49.72;101212.47;5039783;28;20032;-72
2021/07/25 00:20:39;;;;;;;18.30;9.77;;;;;;;21.79;50.18;101214.97;5039529;28;20021;-72
2021/07/25 00:23:05;;;;;;;25.30;9.23;;;;;;;21.76;50.35;101210.13;5024506;28;20029;-72
2021/07/25 00:25:32;;;;;;;35.17;10.32;;;;;;;21.78;50.13;101207.91;5037617;28;20053;-72
2021/07/25 00:27:58;;;;;;;23.45;9.45;;;;;;;21.76;50.33;101218.31;5038952;28;20021;-72
2021/07/25 00:30:25;;;;;;;16.90;9.18;;;;;;;21.75;50.31;101213.19;5020506;28;20040;-72
2021/07/25 00:32:51;;;;;;;15.23;8.75;;;;;;;21.68;50.62;101208.94;5019027;28;20057;-72
2021/07/25 00:35:18;;;;;;;71.55;12.93;;;;;;;21.69;50.63;101210.56;5033453;28;20028;-72
2021/07/25 00:37:47;;;;;;;22.65;9.05;;;;;;;21.67;50.86;101204.63;5025802;28;20075;-72
2021/07/25 00:40:43;;;;;;;38.00;10.73;;;;;;;21.49;51.61;101199.38;5033630;28;20021;-72
2021/07/25 00:43:09;;;;;;;16.40;9.02;;;;;;;21.55;51.09;101198.16;5014356;28;20041;-72
2021/07/25 00:45:34;;;;;;;16.42;9.20;;;;;;;21.55;51.07;101192.69;5038311;28;20074;-72
2021/07/25 00:48:01;;;;;;;15.98;8.85;;;;;;;21.44;51.30;101192.13;5037256;28;20094;-72
2021/07/25 00:50:27;;;;;;;14.55;9.48;;;;;;;21.33;51.52;101194.28;5020825;28;20036;-72
2021/07/25 00:52:53;;;;;;;15.38;9.27;;;;;;;21.24;52.02;101177.06;5039563;28;20283;-72
2021/07/25 00:55:21;;;;;;;13.98;8.85;;;;;;;21.22;52.14;101168.38;5033293;28;20031;-72
2021/07/25 00:57:48;;;;;;;12.80;8.75;;;;;;;21.06;52.88;101172.56;5039121;28;20074;-72
2021/07/25 01:00:14;;;;;;;14.35;9.38;;;;;;;21.16;52.22;101174.22;5034692;28;20643;-72
2021/07/25 01:02:59;;;;;;;15.50;9.23;;;;;;;21.01;52.92;101178.94;5041193;28;20025;-72
2021/07/25 01:05:39;;;;;;;13.70;8.75;;;;;;;20.95;52.83;101174.72;5039988;28;20057;-72
2021/07/25 01:08:12;;;;;;;11.20;7.97;;;;;;;20.87;53.24;101166.47;5026402;28;20037;-72
2021/07/25 01:10:40;;;;;;;13.35;8.75;;;;;;;20.89;52.75;101162.31;5022215;28;20114;-72
2021/07/25 01:13:15;;;;;;;14.95;9.38;;;;;;;20.87;53.13;101161.03;5027757;28;20071;-72
2021/07/25 01:15:44;;;;;;;15.30;8.95;;;;;;;20.87;53.01;101167.28;5043397;28;20099;-72
2021/07/25 01:18:09;;;;;;;18.48;9.93;;;;;;;20.85;52.85;101166.78;5043686;28;20395;-72
2021/07/25 01:20:35;;;;;;;16.35;9.27;;;;;;;20.81;53.21;101166.56;5039594;28;20028;-72
2021/07/25 01:23:01;;;;;;;14.13;8.90;;;;;;;20.71;53.47;101157.84;5026864;28;20393;-72
2021/07/25 01:25:28;;;;;;;19.42;9.70;;;;;;;20.70;53.43;101162.47;5041561;28;20525;-72
2021/07/25 01:28:26;;;;;;;14.73;8.82;;;;;;;20.51;54.48;101172.69;5028860;28;20033;-72
2021/07/25 01:30:57;;;;;;;14.68;9.07;;;;;;;20.48;54.60;101173.31;5013131;28;20041;-72
2021/07/25 01:33:33;;;;;;;16.25;9.38;;;;;;;20.47;54.49;101171.69;5041396;28;20430;-72
2021/07/25 01:36:00;;;;;;;16.38;9.05;;;;;;;20.45;54.50;101163.00;5041789;28;20021;-72
2021/07/25 01:38:26;;;;;;;12.55;9.13;;;;;;;20.42;54.21;101160.88;5029485;28;20035;-72
2021/07/25 01:41:07;;;;;;;16.10;8.77;;;;;;;20.44;54.78;101172.28;5038684;28;20030;-72
2021/07/25 01:43:35;;;;;;;16.23;9.07;;;;;;;20.41;54.80;101164.72;5025918;28;20025;-72
2021/07/25 01:46:00;;;;;;;28.48;10.00;;;;;;;20.36;54.76;101162.88;5042336;28;20568;-72
2021/07/25 01:48:26;;;;;;;16.27;8.90;;;;;;;20.32;55.09;101166.53;5025870;28;20029;-72
2021/07/25 01:50:51;;;;;;;17.48;9.25;;;;;;;20.35;54.80;101166.72;5042028;28;20436;-72
2021/07/25 01:53:17;;;;;;;19.88;9.68;;;;;;;20.27;55.23;101170.13;5040683;28;20032;-72
2021/07/25 01:55:43;;;;;;;14.32;8.98;;;;;;;20.24;55.61;101173.47;5023860;28;20029;-72
2021/07/25 01:58:08;;;;;;;12.40;9.55;;;;;;;20.22;55.48;101162.88;5041539;28;20037;-72
2021/07/25 02:00:34;;;;;;;16.48;9.00;;;;;;;20.17;56.00;101164.91;5041169;28;20086;-72
2021/07/25 02:03:00;;;;;;;12.88;9.60;;;;;;;20.20;55.96;101164.31;5040160;28;20021;-72
2021/07/25 02:05:25;;;;;;;14.40;9.80;;;;;;;20.13;56.23;101158.47;5036676;28;20033;-72
2021/07/25 02:07:51;;;;;;;12.95;8.80;;;;;;;19.91;57.08;101161.84;5042515;28;20090;-72
2021/07/25 02:10:17;;;;;;;16.15;9.23;;;;;;;20.01;56.76;101164.41;5017937;28;20025;-72
2021/07/25 02:12:42;;;;;;;13.38;9.05;;;;;;;19.98;56.77;101158.75;5028015;28;20032;-72
2021/07/25 02:15:08;;;;;;;18.50;9.38;;;;;;;19.98;56.93;101159.56;5034295;28;20878;-72
2021/07/25 02:17:33;;;;;;;20.05;11.23;;;;;;;19.85;57.72;101171.22;5037436;28;20376;-72
2021/07/25 02:19:59;;;;;;;16.58;9.50;;;;;;;19.91;57.44;101168.09;5036244;28;20028;-72
2021/07/25 02:22:25;;;;;;;14.63;9.73;;;;;;;19.91;57.32;101161.84;5039716;28;20056;-72
2021/07/25 02:24:50;;;;;;;14.07;9.73;;;;;;;19.89;57.39;101158.63;5034280;28;20029;-72
2021/07/25 02:27:16;;;;;;;19.45;10.05;;;;;;;19.85;57.57;101157.63;5035554;28;20186;-72
2021/07/25 02:29:41;;;;;;;13.73;9.35;;;;;;;19.80;58.02;101160.44;5038017;28;20468;-72
2021/07/25 02:32:07;;;;;;;21.63;9.95;;;;;;;19.75;58.19;101153.19;5039296;28;20529;-72
2021/07/25 02:34:33;;;;;;;19.33;10.50;;;;;;;19.65;58.79;101145.22;5037281;28;20048;-72
2021/07/25 02:36:59;;;;;;;14.65;9.77;;;;;;;19.69;58.64;101154.38;5037594;28;20132;-72
2021/07/25 02:39:26;;;;;;;24.15;11.02;;;;;;;19.75;58.54;101146.91;5035906;28;20033;-72
2021/07/25 02:41:52;;;;;;;23.38;10.43;;;;;;;19.67;59.00;101158.50;5038201;28;20033;-72
2021/07/25 02:44:17;;;;;;;23.50;11.02;;;;;;;19.54;59.72;101151.91;5035272;28;20029;-72
2021/07/25 02:46:43;;;;;;;28.55;11.27;;;;;;;19.66;59.04;101154.16;5024585;28;20025;-72
2021/07/25 02:49:08;;;;;;;20.50;10.00;;;;;;;19.66;59.16;101154.16;5036189;28;20033;-71
2021/07/25 02:51:34;;;;;;;29.05;11.25;;;;;;;19.63;58.97;101157.50;5039281;28;20446;-72
2021/07/25 02:53:59;;;;;;;15.93;10.50;;;;;;;19.68;58.91;101163.63;5029294;28;20025;-72
2021/07/25 02:56:25;;;;;;;21.20;11.35;;;;;;;19.63;59.11;101166.44;5019311;28;20026;-72
2021/07/25 02:58:50;;;;;;;24.25;10.95;;;;;;;19.65;58.96;101169.69;5028497;28;20034;-72
2021/07/25 03:01:16;;;;;;;24.30;10.35;;;;;;;19.66;58.84;101171.28;5033368;28;20040;-71
2021/07/25 03:03:41;;;;;;;35.55;11.52;;;;;;;19.63;59.10;101165.66;5036592;28;20037;-72
2021/07/25 03:06:07;;;;;;;18.33;11.18;;;;;;;19.49;60.14;101160.13;5035874;28;20033;-72
2021/07/25 03:08:34;;;;;;;15.10;10.10;;;;;;;19.46;59.85;101158.81;5034299;28;20032;-72
2021/07/25 03:11:01;;;;;;;15.25;10.10;;;;;;;19.37;60.42;101155.16;5036247;28;20033;-72
2021/07/25 03:13:27;;;;;;;17.58;10.45;;;;;;;19.33;60.76;101149.50;5037635;28;20074;-72
2021/07/25 03:15:52;;;;;;;15.52;10.55;;;;;;;19.30;60.71;101150.13;5034579;28;20025;-72
2021/07/25 03:18:18;;;;;;;12.73;10.40;;;;;;;19.24;60.92;101145.06;5036735;28;20036;-71
2021/07/25 03:20:43;;;;;;;17.00;10.45;;;;;;;19.29;60.86;101155.84;5035437;28;20032;-72
2021/07/25 03:23:09;;;;;;;17.05;10.18;;;;;;;19.30;60.81;101160.19;5034314;28;20060;-72
2021/07/25 03:25:34;;;;;;;16.92;11.18;;;;;;;19.30;60.46;101152.81;5036630;28;20025;-72
2021/07/25 03:28:00;;;;;;;17.70;11.05;;;;;;;19.31;60.87;101151.72;5037051;28;20450;-72
2021/07/25 03:30:25;;;;;;;16.70;10.13;;;;;;;19.36;60.58;101153.53;5035397;28;20053;-72
2021/07/25 03:32:51;;;;;;;18.00;10.80;;;;;;;19.45;60.45;101159.94;5023097;28;20498;-72
2021/07/25 03:35:16;;;;;;;14.50;10.73;;;;;;;19.51;60.29;101156.00;5036699;28;20355;-72
2021/07/25 03:37:44;;;;;;;18.95;11.05;;;;;;;19.53;60.02;101161.94;5035521;28;20029;-72
2021/07/25 03:40:11;;;;;;;15.38;10.57;;;;;;;19.59;60.13;101162.72;5037432;28;20060;-72
2021/07/25 03:42:37;;;;;;;14.30;9.80;;;;;;;19.65;59.95;101166.16;5034803;28;20121;-72
2021/07/25 03:45:04;;;;;;;13.95;10.43;;;;;;;19.67;60.06;101170.19;5036176;28;20080;-72
2021/07/25 03:47:29;;;;;;;13.93;9.98;;;;;;;19.73;59.96;101170.88;5035677;28;20485;-72
2021/07/25 03:49:54;;;;;;;13.93;11.35;;;;;;;19.74;59.79;101170.59;5035595;28;20077;-72
2021/07/25 03:52:20;;;;;;;16.50;11.48;;;;;;;19.68;60.66;101171.78;5035447;28;20075;-72
2021/07/25 03:54:46;;;;;;;17.73;10.73;;;;;;;19.73;60.48;101176.31;5033773;28;20056;-71
2021/07/25 03:57:12;;;;;;;18.10;11.50;;;;;;;19.82;60.09;101169.91;5035665;28;20128;-72
2021/07/25 03:59:38;;;;;;;18.17;10.95;;;;;;;19.89;60.07;101170.31;5033297;28;20113;-72
2021/07/25 04:02:04;;;;;;;15.95;10.70;;;;;;;19.93;60.31;101178.69;5036040;28;20044;-72
2021/07/25 04:04:30;;;;;;;17.40;10.77;;;;;;;19.95;60.53;101173.78;5033175;28;20109;-72
2021/07/25 04:06:55;;;;;;;15.60;10.27;;;;;;;19.86;60.71;101170.13;5036406;28;20029;-72
2021/07/25 04:09:21;;;;;;;16.17;10.60;;;;;;;19.94;60.49;101180.31;5035288;28;20036;-72
2021/07/25 04:11:55;;;;;;;18.70;11.38;;;;;;;19.97;60.93;101182.44;5023003;28;20025;-72
2021/07/25 04:14:21;;;;;;;18.98;12.13;;;;;;;20.04;60.17;101171.94;5020922;28;20166;-72
2021/07/25 04:16:46;;;;;;;17.80;10.48;;;;;;;20.11;59.82;101164.22;5038016;28;20110;-72
2021/07/25 04:19:12;;;;;;;15.15;11.32;;;;;;;20.11;59.90;101166.94;5020935;28;20040;-72
2021/07/25 04:21:37;;;;;;;15.88;11.10;;;;;;;20.11;60.29;101163.41;5032673;28;20026;-72
2021/07/25 04:24:03;;;;;;;14.30;10.73;;;;;;;20.03;60.46;101169.53;5036930;28;20032;-72
2021/07/25 04:26:29;;;;;;;17.00;11.10;;;;;;;20.14;60.38;101171.78;5033969;28;20411;-72
2021/07/25 04:28:55;;;;;;;14.90;10.40;;;;;;;20.20;60.28;101180.63;5019523;28;20024;-73
2021/07/25 04:31:21;;;;;;;16.13;10.15;;;;;;;20.23;59.85;101171.84;5035897;28;20029;-72
2021/07/25 04:33:51;;;;;;;18.15;11.52;;;;;;;20.27;60.04;101166.59;5032295;28;20029;-72
2021/07/25 04:36:24;;;;;;;15.27;11.07;;;;;;;20.21;60.49;101179.50;5032539;28;20166;-72
2021/07/25 04:38:50;;;;;;;14.68;10.75;;;;;;;20.31;60.12;101176.59;5035989;28;20022;-72
2021/07/25 04:41:24;;;;;;;17.23;11.50;;;;;;;20.39;59.90;101175.88;5038839;28;20033;-72
2021/07/25 04:44:02;;;;;;;18.55;11.55;;;;;;;20.39;59.66;101186.78;5035336;28;20463;-72
2021/07/25 04:46:29;;;;;;;15.85;10.38;;;;;;;20.48;59.27;101186.91;5026693;28;20257;-72
2021/07/25 04:49:14;;;;;;;17.83;11.07;;;;;;;20.47;59.75;101197.00;5040442;28;20021;-72
2021/07/25 04:51:41;;;;;;;15.75;11.18;;;;;;;20.48;59.79;101186.91;5036173;28;20075;-72
2021/07/25 04:54:09;;;;;;;16.63;11.30;;;;;;;20.55;59.83;101187.28;5037072;28;20024;-72
2021/07/25 04:57:00;;;;;;;13.70;11.23;;;;;;;20.60;59.85;101184.47;5037801;28;20362;-72
2021/07/25 04:59:30;;;;;;;16.85;11.43;;;;;;;20.54;60.22;101196.56;5036270;28;20033;-72
2021/07/25 05:02:09;;;;;;;16.95;10.80;;;;;;;20.59;60.19;101179.31;5038926;28;20032;-72
2021/07/25 05:04:34;;;;;;;14.73;11.05;;;;;;;20.69;59.88;101171.75;5037991;28;20024;-72
2021/07/25 05:07:00;;;;;;;14.25;9.93;;;;;;;20.66;60.05;101172.38;5040668;28;20033;-72
2021/07/25 05:09:27;;;;;;;15.90;11.40;;;;;;;20.81;59.65;101176.66;5039729;28;20231;-72
2021/07/25 05:12:00;;;;;;;15.63;11.27;;;;;;;20.85;60.08;101174.16;5038146;28;20056;-72
2021/07/25 05:14:28;;;;;;;18.50;11.32;;;;;;;20.89;60.07;101175.13;5037582;28;20476;-72
2021/07/25 05:17:02;;;;;;;14.05;11.07;;;;;;;21.02;58.87;101177.84;5018943;28;20517;-72
2021/07/25 05:19:51;;;;;;;17.08;11.30;;;;;;;21.07;59.24;101172.25;5035479;28;20535;-71
2021/07/25 05:22:42;;;;;;;18.55;11.40;;;;;;;21.16;59.23;101171.50;5035191;28;20060;-72
2021/07/25 05:25:08;;;;;;;14.07;10.68;;;;;;;21.45;57.98;101173.84;5037166;28;20013;-72
2021/07/25 05:27:42;;;;;;;15.32;10.35;;;;;;;21.53;58.56;101184.00;5036694;28;20021;-72
2021/07/25 05:30:09;;;;;;;16.08;10.70;;;;;;;21.79;57.29;101181.44;5020116;28;20265;-72
2021/07/25 05:32:34;;;;;;;14.75;11.00;;;;;;;21.95;56.69;101178.00;5038191;28;20111;-72
2021/07/25 05:35:00;;;;;;;15.23;10.68;;;;;;;22.06;56.44;101184.00;5020445;28;20510;-72
2021/07/25 05:37:25;;;;;;;15.07;10.70;;;;;;;22.14;56.45;101182.44;5023887;28;20484;-72
2021/07/25 05:39:51;;;;;;;17.67;10.80;;;;;;;22.23;55.60;101175.06;5017083;28;20056;-72
2021/07/25 05:42:16;;;;;;;17.85;11.23;;;;;;;22.22;55.83;101176.19;5042709;28;20087;-72
2021/07/25 05:44:42;;;;;;;15.23;11.30;;;;;;;22.26;55.29;101179.88;5017179;28;20108;-72
2021/07/25 05:47:07;;;;;;;15.43;10.63;;;;;;;22.22;55.88;101178.91;5041203;28;20482;-72
2021/07/25 05:49:33;;;;;;;17.77;10.70;;;;;;;22.25;55.90;101172.81;5038480;28;20028;-72
2021/07/25 05:51:58;;;;;;;13.95;9.70;;;;;;;22.32;55.59;101170.44;5038335;28;20071;-72
2021/07/25 05:54:24;;;;;;;17.08;10.68;;;;;;;22.30;55.52;101180.88;5036837;28;20087;-72
2021/07/25 05:56:49;;;;;;;14.65;10.70;;;;;;;22.30;55.38;101176.22;5036867;28;20479;-72
2021/07/25 05:59:14;;;;;;;17.33;10.77;;;;;;;22.33;55.41;101176.72;5039833;28;20020;-72
2021/07/25 06:01:40;;;;;;;13.82;10.05;;;;;;;22.30;54.93;101176.22;5037983;28;20376;-72
2021/07/25 06:04:06;;;;;;;67.38;12.95;;;;;;;22.31;55.15;101175.09;5017494;28;21520;-72
2021/07/25 06:06:33;;;;;;;16.35;10.60;;;;;;;22.40;54.79;101179.78;5038807;28;20541;-72
2021/07/25 06:08:59;;;;;;;19.23;11.25;;;;;;;22.39;55.13;101175.44;5037974;28;20481;-72
2021/07/25 06:11:24;;;;;;;13.80;9.60;;;;;;;22.26;55.54;101171.69;5037382;28;20071;-72
2021/07/25 06:13:51;;;;;;;14.75;10.65;;;;;;;22.32;55.20;101173.19;5034786;28;20076;-72
2021/07/25 06:16:17;;;;;;;14.10;10.85;;;;;;;22.30;55.10;101175.44;5036658;28;20029;-72
2021/07/25 06:18:47;;;;;;;14.05;10.85;;;;;;;22.28;55.09;101174.94;5039743;28;20539;-72
2021/07/25 06:21:13;;;;;;;18.42;11.55;;;;;;;22.34;54.89;101176.41;5035827;28;20033;-72
2021/07/25 06:23:38;;;;;;;13.85;10.18;;;;;;;22.38;55.25;101176.56;5041283;28;20406;-72
2021/07/25 06:26:05;;;;;;;13.70;10.63;;;;;;;22.45;55.05;101179.66;5040029;28;20075;-72
2021/07/25 06:28:30;;;;;;;20.50;10.93;;;;;;;22.53;54.75;101173.41;5035153;28;20487;-72
2021/07/25 06:30:56;;;;;;;15.13;10.32;;;;;;;22.53;54.52;101184.31;5040143;28;20040;-72
2021/07/25 06:33:21;;;;;;;17.67;10.40;;;;;;;22.45;54.52;101188.66;5020714;28;20484;-72
2021/07/25 06:35:47;;;;;;;15.57;11.07;;;;;;;22.48;54.27;101182.53;5024489;28;20455;-72
2021/07/25 06:38:18;;;;;;;14.98;10.15;;;;;;;22.45;54.53;101179.66;5041075;28;20028;-72
2021/07/25 06:40:46;;;;;;;16.33;11.15;;;;;;;22.70;54.05;101178.09;5040077;28;20028;-72
2021/07/25 06:43:12;;;;;;;14.45;9.90;;;;;;;22.92;53.75;101175.25;5029850;28;20029;-72
2021/07/25 06:45:38;;;;;;;16.35;10.43;;;;;;;23.21;52.78;101172.69;5038528;28;20032;-72
2021/07/25 06:48:04;;;;;;;18.02;10.35;;;;;;;23.33;52.96;101173.94;5039012;28;20494;-72
2021/07/25 06:50:31;;;;;;;16.13;9.85;;;;;;;23.36;53.03;101178.78;5038136;28;20056;-72
2021/07/25 06:52:57;;;;;;;13.82;9.85;;;;;;;23.62;52.58;101179.56;5023076;28;20043;-71
2021/07/25 06:55:28;;;;;;;16.73;9.88;;;;;;;23.77;51.91;101179.03;5037695;28;20047;-72
2021/07/25 06:57:54;;;;;;;29.20;10.55;;;;;;;23.69;51.82;101179.06;5032974;28;20029;-72
2021/07/25 07:00:20;;;;;;;18.13;11.15;;;;;;;23.61;52.00;101186.16;5031723;28;20495;-72
2021/07/25 07:02:46;;;;;;;15.55;10.23;;;;;;;23.91;51.63;101186.25;5035997;28;20255;-72
2021/07/25 07:05:12;;;;;;;14.63;10.15;;;;;;;24.15;51.39;101185.66;5040805;28;20510;-72
2021/07/25 07:07:37;;;;;;;14.30;10.10;;;;;;;24.29;50.97;101181.59;5035654;28;20121;-72
2021/07/25 07:10:03;;;;;;;15.45;10.45;;;;;;;24.40;50.11;101171.88;5041285;28;20029;-72
2021/07/25 07:12:28;;;;;;;13.82;10.30;;;;;;;24.51;49.87;101179.72;5034458;28;20064;-72
2021/07/25 07:14:54;;;;;;;14.80;11.02;;;;;;;24.54;50.14;101174.38;5037536;28;20040;-72
2021/07/25 07:17:22;;;;;;;18.90;11.15;;;;;;;24.57;49.79;101167.41;5036322;28;20267;-72
2021/07/25 07:19:48;;;;;;;12.95;9.93;;;;;;;24.55;49.89;101170.50;5022978;28;20036;-72
2021/07/25 07:22:25;;;;;;;13.57;10.05;;;;;;;24.74;49.82;101166.50;5036833;28;20035;-72
2021/07/25 07:24:50;;;;;;;14.10;10.32;;;;;;;24.96;49.16;101172.47;5039695;28;20033;-72
2021/07/25 07:27:16;;;;;;;12.73;10.32;;;;;;;25.02;48.26;101155.84;5036007;28;20788;-72
2021/07/25 07:29:42;;;;;;;14.82;10.05;;;;;;;25.14;48.19;101164.13;5039130;28;20021;-72
2021/07/25 07:32:08;;;;;;;13.52;9.43;;;;;;;25.23;49.12;101162.09;5039711;28;20154;-72
2021/07/25 07:34:33;;;;;;;13.50;10.50;;;;;;;25.28;48.65;101159.94;5037246;28;20035;-72
2021/07/25 07:36:59;;;;;;;11.70;9.27;;;;;;;25.44;48.76;101157.38;5020089;28;20021;-72
2021/07/25 07:39:24;;;;;;;14.38;10.32;;;;;;;25.71;47.74;101155.19;5035166;28;20033;-72
2021/07/25 07:41:50;;;;;;;13.05;9.85;;;;;;;25.86;47.33;101151.78;5034817;28;20029;-72
2021/07/25 07:44:15;;;;;;;15.35;9.55;;;;;;;25.99;47.08;101155.31;5035955;28;20029;-72
2021/07/25 07:46:41;;;;;;;12.57;9.88;;;;;;;26.04;47.34;101160.59;5034856;28;20020;-72
2021/07/25 07:49:06;;;;;;;12.65;9.82;;;;;;;25.98;47.54;101146.28;5020620;28;20112;-72
2021/07/25 07:51:32;;;;;;;14.00;9.45;;;;;;;26.24;46.33;101156.16;5034364;28;20494;-72
2021/07/25 07:53:57;;;;;;;13.90;10.63;;;;;;;26.33;45.83;101154.06;5022490;28;20491;-72
2021/07/25 07:56:26;;;;;;;12.10;9.35;;;;;;;26.44;45.08;101161.53;5035736;28;20257;-72
2021/07/25 07:58:51;;;;;;;19.35;10.13;;;;;;;26.50;45.17;101151.91;5032952;28;20454;-72
2021/07/25 08:01:17;;;;;;;12.88;9.07;;;;;;;26.62;45.09;101153.84;5037128;28;20039;-72
2021/07/25 08:03:42;;;;;;;45.83;11.57;;;;;;;26.79;44.50;101150.81;5034597;28;20029;-72
2021/07/25 08:06:08;;;;;;;16.17;9.50;;;;;;;27.06;44.20;101153.94;5032072;28;20024;-72
2021/07/25 08:08:33;;;;;;;13.75;10.23;;;;;;;27.15;43.81;101154.63;5019713;28;20127;-72
2021/07/25 08:10:59;;;;;;;19.33;10.05;;;;;;;27.30;44.00;101155.81;5017129;28;20033;-72
2021/07/25 08:13:24;;;;;;;13.85;9.25;;;;;;;27.60;43.78;101156.22;5034476;28;22297;-72
2021/07/25 08:15:49;;;;;;;12.20;9.40;;;;;;;27.76;43.79;101151.53;5033824;28;20037;-72
2021/07/25 08:18:15;;;;;;;19.65;10.02;;;;;;;27.92;43.07;101157.84;5037327;28;20111;-72
2021/07/25 08:20:40;;;;;;;13.65;9.85;;;;;;;27.98;42.35;101150.91;5033181;28;20035;-72
2021/07/25 08:23:06;;;;;;;12.52;9.55;;;;;;;27.98;42.12;101155.63;5032446;28;20025;-72
2021/07/25 08:25:31;;;;;;;14.65;9.57;;;;;;;28.03;42.11;101155.38;5038019;28;20103;-72
2021/07/25 08:27:57;;;;;;;11.55;9.80;;;;;;;28.14;42.15;101159.16;5033398;28;20021;-72
2021/07/25 08:30:22;;;;;;;12.05;9.30;;;;;;;28.26;41.75;101150.84;5037218;28;20020;-72
2021/07/25 08:32:48;;;;;;;11.60;9.20;;;;;;;28.47;41.21;101150.53;5035571;28;20116;-72
2021/07/25 08:35:13;;;;;;;15.13;9.85;;;;;;;28.50;40.46;101151.75;5031650;28;20432;-72
2021/07/25 08:37:39;;;;;;;13.40;9.40;;;;;;;28.69;40.19;101145.47;5033628;28;20135;-72
2021/07/25 08:40:05;;;;;;;14.20;9.60;;;;;;;28.67;39.36;101142.28;5030134;28;20075;-73
2021/07/25 08:42:37;;;;;;;13.52;9.25;;;;;;;28.69;39.86;101140.75;5037127;28;20087;-72
2021/07/25 08:45:03;;;;;;;13.80;9.05;;;;;;;28.75;39.14;101136.56;5037364;28;20151;-72
2021/07/25 08:47:29;;;;;;;14.65;9.63;;;;;;;28.78;39.26;101143.31;5037946;28;20025;-72
2021/07/25 08:49:58;;;;;;;13.40;9.40;;;;;;;29.01;39.39;101140.66;5017930;28;20043;-72
2021/07/25 08:52:26;;;;;;;19.13;9.82;;;;;;;29.14;38.38;101136.59;5034949;28;20170;-72
2021/07/25 08:54:53;;;;;;;50.42;11.77;;;;;;;29.18;37.80;101138.25;5036412;28;20037;-72
2021/07/25 08:57:22;;;;;;;47.63;11.63;;;;;;;29.33;38.01;101130.25;5037460;28;20021;-72
2021/07/25 08:59:51;;;;;;;26.45;9.77;;;;;;;29.56;38.76;101144.88;5034998;28;20387;-72
2021/07/25 09:02:24;;;;;;;16.70;9.63;;;;;;;29.67;37.65;101134.84;5033192;28;20025;-72
2021/07/25 09:04:50;;;;;;;15.55;8.75;;;;;;;29.77;38.24;101134.19;5033198;28;20013;-72
2021/07/25 09:07:18;;;;;;;19.77;9.55;;;;;;;29.82;36.83;101127.59;5033554;28;20047;-72
2021/07/25 09:09:46;;;;;;;14.10;9.40;;;;;;;29.69;36.47;101135.25;5033012;28;20024;-72
2021/07/25 09:12:13;;;;;;;12.85;9.60;;;;;;;29.71;37.46;101132.94;5035805;28;20052;-72
2021/07/25 09:15:13;;;;;;;13.15;9.40;;;;;;;29.87;36.90;101135.56;5034884;28;20029;-72
2021/07/25 09:17:39;;;;;;;12.43;9.07;;;;;;;29.93;35.92;101136.03;5017339;28;20403;-72
2021/07/25 09:20:21;;;;;;;16.33;10.38;;;;;;;29.95;35.66;101133.69;5033842;28;20025;-72
2021/07/25 09:22:47;;;;;;;17.67;9.85;;;;;;;29.92;36.21;101138.00;5032659;28;20303;-72
2021/07/25 09:25:13;;;;;;;10.15;8.68;;;;;;;30.06;36.41;101143.00;5039147;28;20021;-73
2021/07/25 09:27:38;;;;;;;11.80;9.35;;;;;;;30.04;36.70;101137.03;5037051;28;20035;-72
2021/07/25 09:30:20;;;;;;;12.00;10.27;;;;;;;30.21;36.90;101136.50;5036707;28;20025;-74
2021/07/25 09:32:46;;;;;;;12.27;9.48;;;;;;;30.21;36.28;101132.97;5019147;28;20558;-75
2021/07/25 09:35:29;;;;;;;13.55;9.80;;;;;;;29.99;35.31;101123.53;5037927;28;20127;-74
2021/07/25 09:37:57;;;;;;;12.10;9.43;;;;;;;30.01;36.05;101129.47;5035467;28;20033;-74
2021/07/25 09:40:25;;;;;;;11.00;9.73;;;;;;;30.18;37.07;101128.97;5038813;28;20031;-73
2021/07/25 09:43:05;;;;;;;11.43;10.32;;;;;;;30.08;37.25;101132.38;5037697;28;20044;-75
2021/07/25 09:45:31;;;;;;;14.70;10.20;;;;;;;29.92;36.50;101131.69;5020046;28;20407;-76
2021/07/25 09:48:09;;;;;;;13.77;10.73;;;;;;;29.78;36.41;101130.28;5037229;28;20036;-74
2021/07/25 09:50:35;;;;;;;13.00;10.32;;;;;;;29.80;36.61;101129.91;5036016;28;20037;-77
2021/07/25 09:53:01;;;;;;;12.20;10.63;;;;;;;29.73;36.94;101127.03;5040086;28;20161;-73
2021/07/25 09:55:30;;;;;;;17.85;11.30;;;;;;;29.87;37.44;101126.47;5035514;28;20555;-75
2021/07/25 09:57:56;;;;;;;14.95;10.35;;;;;;;30.10;36.47;101120.94;5033528;28;20055;-75
2021/07/25 10:00:22;;;;;;;13.07;11.05;;;;;;;29.98;36.89;101119.97;5037880;28;20025;-74
2021/07/25 10:02:49;;;;;;;13.05;10.25;;;;;;;30.39;36.68;101117.44;5020469;28;20025;-74
2021/07/25 10:05:16;;;;;;;11.85;10.18;;;;;;;30.15;36.25;101120.59;5035495;28;20025;-74
2021/07/25 10:07:43;;;;;;;17.77;11.55;;;;;;;30.43;36.05;101109.97;5034174;28;20029;-73
2021/07/25 10:10:11;;;;;;;19.92;11.55;;;;;;;30.44;35.50;101110.78;5021521;28;20029;-74
2021/07/25 10:12:39;;;;;;;67.18;13.48;;;;;;;30.58;36.01;101122.81;5017133;28;20536;-74
2021/07/25 10:15:06;;;;;;;16.55;10.48;;;;;;;30.50;37.42;101114.78;5038753;28;20072;-73
2021/07/25 10:17:34;;;;;;;13.68;10.25;;;;;;;30.68;36.32;101110.31;5037282;28;20475;-73
2021/07/25 10:20:02;;;;;;;14.10;10.35;;;;;;;30.77;35.72;101110.84;5022738;28;20091;-75
2021/07/25 10:22:30;;;;;;;13.80;10.48;;;;;;;30.91;35.28;101099.94;5032628;28;20021;-73
2021/07/25 10:24:58;;;;;;;15.02;10.68;;;;;;;31.00;35.45;101099.63;5037267;28;20032;-73
2021/07/25 10:27:24;;;;;;;13.15;10.90;;;;;;;31.11;35.06;101102.53;5036173;28;20523;-73
2021/07/25 10:29:52;;;;;;;19.55;10.35;;;;;;;31.30;34.92;101102.34;5037418;28;20316;-73
2021/07/25 10:32:19;;;;;;;13.63;9.82;;;;;;;31.41;34.58;101102.44;5038578;28;20421;-76
2021/07/25 10:34:46;;;;;;;20.98;10.13;;;;;;;31.39;35.11;101100.06;5035699;28;20041;-74
2021/07/25 10:37:12;;;;;;;20.58;9.88;;;;;;;31.15;34.73;101097.81;5034800;28;20297;-75
2021/07/25 10:39:43;;;;;;;14.55;9.73;;;;;;;30.93;33.56;101108.66;5035169;28;20139;-75
2021/07/25 10:42:13;;;;;;;11.73;9.07;;;;;;;31.05;35.11;101104.03;5040605;28;20032;-75
2021/07/25 10:44:42;;;;;;;14.50;10.85;;;;;;;31.33;34.34;101090.53;5024006;28;20036;-73
2021/07/25 10:47:24;;;;;;;11.70;9.55;;;;;;;31.49;34.79;101099.38;5041438;28;20425;-74
2021/07/25 10:50:07;;;;;;;19.95;10.18;;;;;;;31.63;35.00;101095.13;5039713;28;20529;-74
2021/07/25 10:52:52;;;;;;;30.73;11.05;;;;;;;31.67;34.85;101090.41;5039086;28;20036;-75
2021/07/25 10:58:03;;;;;;;13.95;10.68;;;;;;;31.88;34.55;101101.69;5039542;28;20281;-78
2021/07/25 11:00:49;;;;;;;23.35;10.13;;;;;;;31.86;33.99;101092.97;5036815;28;20025;-75
2021/07/25 11:03:30;;;;;;;15.80;10.23;;;;;;;31.89;34.41;101094.97;5037803;28;20025;-74
2021/07/25 11:06:02;;;;;;;18.05;10.38;;;;;;;31.90;34.30;101087.44;5040842;28;20102;-75
2021/07/25 11:08:41;;;;;;;11.20;10.00;;;;;;;31.83;33.28;101096.50;5038970;28;20032;-75
2021/07/25 11:11:25;;;;;;;12.77;9.80;;;;;;;32.22;33.32;101090.44;5033288;28;20040;-77
2021/07/25 11:13:51;;;;;;;13.63;9.48;;;;;;;32.22;32.85;101090.44;5038142;28;20116;-75
2021/07/25 11:16:31;;;;;;;27.58;9.90;;;;;;;32.16;33.32;101090.81;5038245;28;20632;-75
2021/07/25 11:19:06;;;;;;;12.98;10.00;;;;;;;32.05;33.08;101086.38;5019447;28;20501;-76